createdAt,value
2023-05-04T00:00:12.452Z,5.60
2023-05-04T00:06:18.220Z,7.13
2023-05-04T00:12:15.440Z,8.15
2023-05-04T00:15:01.297Z,6.97
2023-05-04T00:21:19.004Z,7.90
2023-05-04T00:24:05.549Z,8.43
2023-05-04T00:26:51.761Z,7.03
2023-05-04T00:29:38.180Z,6.60
2023-05-04T00:35:57.607Z,8.30
2023-05-04T00:38:52.202Z,7.38
2023-05-04T00:41:45.638Z,6.30
2023-05-04T00:44:41.204Z,6.50
2023-05-04T00:47:33.736Z,7.33
2023-05-04T00:50:27.106Z,6.75
2023-05-04T00:53:19.791Z,6.50
2023-05-04T00:56:16.097Z,7.85
2023-05-04T00:59:08.437Z,8.43
2023-05-04T01:02:09.575Z,7.13
2023-05-04T01:05:02.822Z,8.23
2023-05-04T01:11:28.561Z,6.55
2023-05-04T01:14:49.907Z,8.55
2023-05-04T01:17:43.006Z,8.68
2023-05-04T01:20:36.196Z,7.35
2023-05-04T01:23:30.025Z,9.25
2023-05-04T01:26:25.672Z,8.32
2023-05-04T01:29:20.975Z,8.25
2023-05-04T01:32:16.072Z,7.13
2023-05-04T01:35:09.176Z,7.40
2023-05-04T01:38:01.635Z,7.90
2023-05-04T01:40:56.820Z,6.28
2023-05-04T01:47:10.684Z,7.47
2023-05-04T01:53:50.525Z,8.23
2023-05-04T01:56:45.226Z,8.48
2023-05-04T02:02:48.448Z,8.18
2023-05-04T02:05:44.359Z,9.70
2023-05-04T02:08:36.495Z,9.45
2023-05-04T02:11:28.889Z,8.15
2023-05-04T02:14:22.673Z,8.88
2023-05-04T02:17:15.858Z,9.68
2023-05-04T02:20:10.125Z,8.63
2023-05-04T02:23:02.616Z,9.57
2023-05-04T02:25:55.951Z,10.18
2023-05-04T02:28:49.756Z,9.07
2023-05-04T02:31:44.075Z,9.73
2023-05-04T02:34:36.971Z,9.82
2023-05-04T02:37:29.599Z,8.65
2023-05-04T02:40:22.862Z,9.45
2023-05-04T02:43:15.775Z,10.45
2023-05-04T02:46:08.878Z,11.77
2023-05-04T02:49:03.005Z,12.40
2023-05-04T02:51:55.679Z,11.13
2023-05-04T02:58:01.130Z,12.23
2023-05-04T03:00:54.559Z,12.65
2023-05-04T03:03:47.570Z,12.27
2023-05-04T03:06:42.264Z,13.52
2023-05-04T03:09:34.413Z,12.68
2023-05-04T03:12:26.724Z,11.60
2023-05-04T03:15:19.295Z,11.15
2023-05-04T03:18:11.596Z,11.65
2023-05-04T03:21:04.610Z,11.48
2023-05-04T03:23:59.492Z,10.82
2023-05-04T03:26:53.546Z,10.98
2023-05-04T03:29:46.767Z,11.02
2023-05-04T03:32:40.584Z,12.57
2023-05-04T03:35:33.671Z,11.45
2023-05-04T03:38:28.528Z,10.45
2023-05-04T03:41:26.303Z,10.55
2023-05-04T03:44:18.649Z,13.07
2023-05-04T03:47:11.451Z,12.40
2023-05-04T03:50:03.998Z,13.15
2023-05-04T03:52:56.870Z,11.43
2023-05-04T03:55:51.557Z,12.80
2023-05-04T04:01:35.427Z,12.07
2023-05-04T04:07:41.318Z,10.45
2023-05-04T04:13:49.932Z,11.02
2023-05-04T04:16:44.246Z,11.43
2023-05-04T04:19:36.252Z,14.32
2023-05-04T04:25:39.397Z,14.23
2023-05-04T04:31:49.309Z,13.93
2023-05-04T04:34:41.599Z,14.32
2023-05-04T04:37:34.442Z,15.30
2023-05-04T04:43:47.925Z,14.07
2023-05-04T04:46:40.583Z,11.45
2023-05-04T04:49:34.890Z,13.45
2023-05-04T04:52:27.654Z,14.60
2023-05-04T04:55:20.804Z,12.13
2023-05-04T04:58:13.604Z,10.77
2023-05-04T05:01:07.949Z,10.77
2023-05-04T05:04:00.675Z,9.30
2023-05-04T05:10:09.458Z,6.70
2023-05-04T05:16:14.145Z,6.70
2023-05-04T05:19:06.703Z,5.22
2023-05-04T05:25:08.119Z,3.70
2023-05-04T05:28:00.674Z,3.83
2023-05-04T05:30:53.967Z,3.80
2023-05-04T05:34:02.616Z,3.72
2023-05-04T05:36:53.667Z,3.92
2023-05-04T05:39:46.779Z,3.80
2023-05-04T05:45:53.469Z,4.70
2023-05-04T05:52:02.057Z,4.05
2023-05-04T05:58:10.932Z,4.00
2023-05-04T06:04:17.310Z,4.82
2023-05-04T06:07:09.766Z,4.85
2023-05-04T06:10:02.737Z,4.47
2023-05-04T06:12:55.678Z,4.95
2023-05-04T06:15:52.935Z,4.75
2023-05-04T06:18:46.128Z,4.35
2023-05-04T06:21:39.850Z,4.97
2023-05-04T06:24:32.772Z,4.57
2023-05-04T06:27:28.696Z,4.88
2023-05-04T06:30:24.185Z,4.95
2023-05-04T06:33:17.183Z,5.03
2023-05-04T06:36:10.314Z,4.93
2023-05-04T06:39:04.159Z,5.03
2023-05-04T06:41:57.018Z,4.85
2023-05-04T06:44:52.153Z,5.43
2023-05-04T06:47:44.481Z,5.43
2023-05-04T06:53:48.632Z,5.55
2023-05-04T07:00:10.563Z,5.63
2023-05-04T07:03:03.809Z,5.60
2023-05-04T07:09:09.053Z,5.15
2023-05-04T07:12:01.471Z,5.03
2023-05-04T07:14:53.617Z,4.82
2023-05-04T07:17:48.433Z,4.60
2023-05-04T07:20:42.900Z,5.07
2023-05-04T07:23:35.703Z,3.87
2023-05-04T07:26:34.047Z,4.32
2023-05-04T07:29:26.554Z,3.95
2023-05-04T07:32:19.744Z,4.88
2023-05-04T07:35:14.637Z,4.10
2023-05-04T07:38:08.127Z,5.05
2023-05-04T07:41:00.505Z,4.13
2023-05-04T07:43:52.700Z,5.05
2023-05-04T07:46:45.586Z,4.03
2023-05-04T07:49:38.785Z,4.40
2023-05-04T07:52:33.538Z,4.85
2023-05-04T07:55:28.812Z,4.88
2023-05-04T08:01:57.894Z,5.23
2023-05-04T08:05:08.614Z,3.65
2023-05-04T08:07:58.796Z,5.05
2023-05-04T08:14:38.528Z,3.70
2023-05-04T08:17:46.757Z,3.87
2023-05-04T08:20:38.604Z,4.35
2023-05-04T08:23:34.048Z,4.00
2023-05-04T08:26:26.874Z,3.80
2023-05-04T08:29:31.534Z,4.13
2023-05-04T08:32:24.682Z,3.95
2023-05-04T08:35:18.078Z,3.47
2023-05-04T08:38:10.346Z,5.18
2023-05-04T08:41:04.887Z,3.70
2023-05-04T08:43:59.447Z,4.40
2023-05-04T08:47:16.937Z,3.83
2023-05-04T08:50:10.593Z,5.13
2023-05-04T08:53:19.800Z,4.05
2023-05-04T08:56:14.501Z,4.40
2023-05-04T09:02:28.920Z,4.13
2023-05-04T09:05:22.049Z,4.70
2023-05-04T09:08:15.259Z,4.03
2023-05-04T09:11:07.529Z,4.03
2023-05-04T09:14:00.966Z,4.32
2023-05-04T09:20:14.911Z,4.55
2023-05-04T09:26:12.528Z,3.58
2023-05-04T09:29:16.138Z,3.63
2023-05-04T09:32:12.225Z,4.03
2023-05-04T09:35:06.278Z,4.15
2023-05-04T09:37:58.848Z,4.80
2023-05-04T09:40:52.045Z,3.53
2023-05-04T09:43:48.140Z,3.97
2023-05-04T09:46:41.911Z,3.88
2023-05-04T09:49:36.188Z,4.32
2023-05-04T09:52:27.678Z,3.95
2023-05-04T09:55:21.577Z,4.00
2023-05-04T09:58:15.869Z,3.78
2023-05-04T10:01:09.225Z,3.72
2023-05-04T10:04:03.913Z,3.13
2023-05-04T10:09:50.177Z,4.15
2023-05-04T10:12:59.886Z,4.00
2023-05-04T10:16:01.070Z,3.58
2023-05-04T10:22:18.537Z,3.17
2023-05-04T10:25:23.700Z,3.90
2023-05-04T10:28:28.531Z,3.72
2023-05-04T10:34:49.801Z,3.65
2023-05-04T10:37:37.905Z,3.00
2023-05-04T10:40:37.501Z,3.53
2023-05-04T10:46:35.984Z,3.65
2023-05-04T10:49:22.840Z,3.75
2023-05-04T10:52:10.652Z,4.55
2023-05-04T10:58:04.807Z,4.15
2023-05-04T11:00:51.513Z,4.13
2023-05-04T11:07:08.602Z,4.10
2023-05-04T11:10:38.927Z,3.17
2023-05-04T11:13:35.074Z,3.60
2023-05-04T11:16:28.480Z,4.28
2023-05-04T11:22:56.416Z,4.10
2023-05-04T11:25:48.391Z,3.45
2023-05-04T11:28:42.987Z,3.78
2023-05-04T11:31:35.451Z,3.90
2023-05-04T11:34:27.704Z,3.25
2023-05-04T11:37:34.748Z,2.28
2023-05-04T11:40:27.992Z,2.22
2023-05-04T11:43:21.041Z,2.10
2023-05-04T11:46:10.258Z,1.95
2023-05-04T11:49:04.044Z,1.85
2023-05-04T11:52:06.861Z,1.65
2023-05-04T11:54:59.704Z,2.17
2023-05-04T12:01:27.139Z,2.05
2023-05-04T12:04:19.629Z,2.58
2023-05-04T12:07:12.744Z,2.30
2023-05-04T12:10:06.328Z,2.22
2023-05-04T12:13:23.922Z,3.03
2023-05-04T12:16:18.000Z,2.92
2023-05-04T12:19:13.350Z,2.80
2023-05-04T12:25:22.455Z,2.92
2023-05-04T12:28:14.808Z,3.25
2023-05-04T12:31:07.838Z,3.03
2023-05-04T12:34:00.601Z,2.63
2023-05-04T12:36:55.932Z,3.40
2023-05-04T12:39:48.834Z,2.67
2023-05-04T12:42:42.240Z,3.00
2023-05-04T12:45:34.590Z,2.65
2023-05-04T12:48:21.943Z,3.30
2023-05-04T12:51:14.731Z,3.30
2023-05-04T12:54:09.159Z,3.42
2023-05-04T12:57:02.227Z,2.95
2023-05-04T12:59:54.808Z,3.25
2023-05-04T13:02:47.948Z,2.83
2023-05-04T13:05:40.986Z,2.75
2023-05-04T13:11:47.428Z,3.67
2023-05-04T13:14:40.153Z,2.97
2023-05-04T13:17:33.772Z,3.42
2023-05-04T13:23:37.516Z,2.83
2023-05-04T13:26:29.692Z,2.80
2023-05-04T13:29:24.379Z,2.90
2023-05-04T13:32:34.347Z,2.97
2023-05-04T13:35:24.240Z,2.70
2023-05-04T13:38:16.792Z,2.80
2023-05-04T13:41:09.522Z,2.78
2023-05-04T13:44:01.659Z,2.67
2023-05-04T13:46:56.305Z,2.42
2023-05-04T13:49:49.026Z,2.35
2023-05-04T13:52:41.573Z,2.05
2023-05-04T13:55:33.832Z,2.50
2023-05-04T13:58:27.241Z,2.25
2023-05-04T14:01:19.583Z,2.40
2023-05-04T14:04:13.109Z,2.65
2023-05-04T14:07:05.668Z,2.03
2023-05-04T14:09:59.678Z,2.33
2023-05-04T14:12:52.991Z,2.03
2023-05-04T14:15:45.860Z,2.00
2023-05-04T14:21:47.531Z,2.08
2023-05-04T14:24:40.692Z,2.28
2023-05-04T14:27:35.170Z,2.60
2023-05-04T14:30:41.803Z,2.33
2023-05-04T14:33:34.575Z,2.47
2023-05-04T14:36:26.769Z,2.33
2023-05-04T14:39:21.237Z,1.90
2023-05-04T14:42:13.663Z,2.15
2023-05-04T14:45:07.952Z,1.70
2023-05-04T14:51:22.781Z,1.70
2023-05-04T14:57:33.534Z,2.15
2023-05-04T15:00:25.980Z,2.25
2023-05-04T15:03:19.127Z,2.15
2023-05-04T15:06:12.263Z,1.90
2023-05-04T15:12:21.391Z,2.40
2023-05-04T15:15:15.425Z,1.85
2023-05-04T15:21:36.560Z,1.90
2023-05-04T15:24:28.498Z,1.80
2023-05-04T15:27:20.772Z,1.90
2023-05-04T15:30:16.392Z,1.67
2023-05-04T15:33:10.442Z,1.55
2023-05-04T15:36:06.676Z,2.00
2023-05-04T15:38:59.775Z,1.60
2023-05-04T15:41:52.740Z,2.10
2023-05-04T15:44:45.715Z,2.03
2023-05-04T15:47:40.766Z,1.90
2023-05-04T15:50:33.640Z,1.60
2023-05-04T15:53:26.946Z,1.83
2023-05-04T15:56:20.407Z,1.80
2023-05-04T15:59:12.955Z,2.22
2023-05-04T16:02:07.964Z,1.98
2023-05-04T16:05:37.990Z,2.40
2023-05-04T16:08:32.132Z,1.63
2023-05-04T16:14:53.903Z,2.10
2023-05-04T16:17:46.931Z,2.17
2023-05-04T16:20:39.974Z,2.30
2023-05-04T16:23:33.810Z,1.85
2023-05-04T16:26:26.774Z,2.00
2023-05-04T16:29:19.703Z,1.90
2023-05-04T16:32:12.747Z,2.33
2023-05-04T16:35:06.991Z,1.70
2023-05-04T16:38:00.328Z,1.90
2023-05-04T16:40:53.997Z,1.90
2023-05-04T16:43:48.784Z,1.92
2023-05-04T16:49:54.076Z,2.00
2023-05-04T16:52:46.917Z,1.88
2023-05-04T16:55:40.668Z,1.92
2023-05-04T16:58:35.311Z,2.28
2023-05-04T17:01:31.868Z,1.83
2023-05-04T17:04:27.308Z,1.90
2023-05-04T17:07:19.767Z,1.73
2023-05-04T17:10:12.969Z,1.80
2023-05-04T17:13:07.015Z,1.88
2023-05-04T17:16:01.085Z,2.13
2023-05-04T17:18:53.943Z,2.85
2023-05-04T17:21:46.832Z,2.08
2023-05-04T17:24:40.017Z,2.17
2023-05-04T17:27:32.361Z,2.20
2023-05-04T17:30:24.827Z,1.95
2023-05-04T17:33:19.033Z,1.65
2023-05-04T17:36:12.437Z,2.28
2023-05-04T17:39:04.987Z,2.08
2023-05-04T17:41:58.235Z,2.28
2023-05-04T17:44:50.950Z,2.17
2023-05-04T17:51:01.401Z,2.30
2023-05-04T17:53:53.821Z,2.50
2023-05-04T17:56:46.686Z,2.60
2023-05-04T18:03:00.871Z,2.35
2023-05-04T18:05:53.789Z,2.08
2023-05-04T18:08:48.077Z,2.97
2023-05-04T18:11:40.935Z,2.53
2023-05-04T18:14:34.001Z,2.33
2023-05-04T18:17:28.568Z,2.63
2023-05-04T18:20:20.939Z,3.80
2023-05-04T18:23:13.782Z,3.05
2023-05-04T18:26:07.982Z,2.38
2023-05-04T18:29:07.913Z,3.15
2023-05-04T18:32:10.644Z,3.03
2023-05-04T18:35:04.033Z,2.97
2023-05-04T18:37:56.781Z,2.55
2023-05-04T18:40:53.380Z,2.77
2023-05-04T18:43:47.276Z,2.53
2023-05-04T18:46:40.242Z,2.97
2023-05-04T18:49:32.703Z,2.78
2023-05-04T18:52:25.890Z,3.15
2023-05-04T18:55:18.804Z,3.92
2023-05-04T18:58:12.255Z,6.20
2023-05-04T19:01:06.402Z,6.63
2023-05-04T19:07:11.171Z,4.05
2023-05-04T19:10:03.933Z,3.25
2023-05-04T19:12:57.517Z,3.08
2023-05-04T19:15:49.932Z,3.13
2023-05-04T19:18:45.512Z,3.47
2023-05-04T19:21:37.729Z,3.37
2023-05-04T19:27:50.734Z,3.33
2023-05-04T19:30:43.656Z,4.03
2023-05-04T19:33:47.295Z,3.58
2023-05-04T19:36:42.136Z,4.32
2023-05-04T19:39:34.773Z,4.30
2023-05-04T19:42:28.226Z,4.20
2023-05-04T19:45:20.801Z,4.18
2023-05-04T19:48:16.216Z,4.60
2023-05-04T19:51:08.910Z,4.28
2023-05-04T19:54:03.294Z,4.75
2023-05-04T20:00:13.122Z,4.38
2023-05-04T20:03:06.020Z,4.32
2023-05-04T20:05:59.107Z,4.20
2023-05-04T20:08:58.245Z,5.07
2023-05-04T20:11:52.235Z,4.05
2023-05-04T20:14:44.998Z,4.50
2023-05-04T20:17:37.967Z,4.13
2023-05-04T20:20:30.660Z,5.07
2023-05-04T20:23:23.030Z,4.13
2023-05-04T20:29:29.995Z,4.05
2023-05-04T20:32:22.707Z,3.72
2023-05-04T20:38:45.003Z,3.90
2023-05-04T20:42:15.114Z,4.45
2023-05-04T20:45:09.983Z,4.95
2023-05-04T20:48:20.102Z,3.60
2023-05-04T20:51:14.340Z,3.60
2023-05-04T20:54:07.956Z,4.45
2023-05-04T20:56:56.414Z,5.93
2023-05-04T20:59:49.015Z,3.65
2023-05-04T21:02:43.474Z,4.50
2023-05-04T21:05:39.069Z,3.58
2023-05-04T21:08:32.122Z,4.47
2023-05-04T21:11:24.944Z,4.65
2023-05-04T21:17:49.709Z,4.35
2023-05-04T21:21:20.066Z,4.30
2023-05-04T21:24:13.884Z,4.47
2023-05-04T21:27:22.983Z,5.40
2023-05-04T21:30:13.804Z,5.05
2023-05-04T21:33:08.113Z,4.80
2023-05-04T21:36:11.000Z,4.53
2023-05-04T21:39:02.461Z,4.70
2023-05-04T21:41:54.636Z,4.45
2023-05-04T21:44:47.037Z,4.65
2023-05-04T21:47:39.753Z,4.93
2023-05-04T21:50:34.167Z,5.20
2023-05-04T21:53:26.946Z,4.45
2023-05-04T21:56:19.980Z,5.18
2023-05-04T21:59:12.707Z,4.82
2023-05-04T22:02:06.485Z,5.38
2023-05-04T22:04:58.979Z,5.50
2023-05-04T22:07:53.090Z,7.25
2023-05-04T22:10:59.869Z,5.35
2023-05-04T22:13:53.000Z,6.18
2023-05-04T22:16:46.378Z,5.82
2023-05-04T22:19:38.593Z,5.50
2023-05-04T22:22:31.234Z,6.20
2023-05-04T22:25:25.598Z,5.85
2023-05-04T22:28:18.072Z,6.38
2023-05-04T22:31:10.799Z,6.00
2023-05-04T22:34:03.635Z,5.70
2023-05-04T22:36:56.086Z,6.00
2023-05-04T22:39:48.665Z,5.90
2023-05-04T22:46:03.010Z,6.45
2023-05-04T22:52:20.791Z,6.53
2023-05-04T22:58:20.702Z,6.60
2023-05-04T23:04:26.455Z,7.22
2023-05-04T23:07:18.969Z,6.25
2023-05-04T23:10:11.725Z,7.13
2023-05-04T23:13:04.663Z,6.55
2023-05-04T23:15:56.860Z,7.22
2023-05-04T23:18:49.860Z,7.28
2023-05-04T23:21:44.279Z,6.82
2023-05-04T23:24:37.213Z,7.05
2023-05-04T23:27:26.769Z,5.97
2023-05-04T23:30:20.117Z,6.63
2023-05-04T23:33:45.058Z,6.50
2023-05-04T23:36:31.412Z,6.72
2023-05-04T23:42:37.435Z,7.03
2023-05-04T23:45:23.259Z,6.28
2023-05-04T23:48:09.483Z,6.63
2023-05-04T23:50:57.383Z,6.25
2023-05-04T23:53:43.392Z,6.88
2023-05-04T23:56:29.777Z,7.07
2023-05-04T23:59:17.283Z,6.75
